sensor_id;sensor_type;location;lat;lon;timestamp;pressure;altitude;pressure_sealevel;temperature;humidity
34506;BME280;20748;42.632;23.198;2023-02-17T00:01:23;92869.91;;;-0.17;86.04
34506;BME280;20748;42.632;23.198;2023-02-17T00:03:56;92872.13;;;-0.20;86.04
34506;BME280;20748;42.632;23.198;2023-02-17T00:06:30;92866.56;;;-0.17;87.00
34506;BME280;20748;42.632;23.198;2023-02-17T00:09:02;92869.06;;;-0.10;86.03
34506;BME280;20748;42.632;23.198;2023-02-17T00:11:35;92865.16;;;-0.13;86.96
34506;BME280;20748;42.632;23.198;2023-02-17T00:14:08;92868.88;;;-0.09;85.59
34506;BME280;20748;42.632;23.198;2023-02-17T00:16:43;92863.75;;;-0.09;85.62
34506;BME280;20748;42.632;23.198;2023-02-17T00:19:16;92863.22;;;-0.18;85.12
34506;BME280;20748;42.632;23.198;2023-02-17T00:21:58;92860.84;;;-0.19;85.53
34506;BME280;20748;42.632;23.198;2023-02-17T00:24:32;92857.56;;;-0.26;85.88
34506;BME280;20748;42.632;23.198;2023-02-17T00:27:06;92857.50;;;-0.20;84.81
34506;BME280;20748;42.632;23.198;2023-02-17T00:29:38;92852.69;;;-0.35;86.81
34506;BME280;20748;42.632;23.198;2023-02-17T00:32:11;92853.03;;;-0.31;86.03
34506;BME280;20748;42.632;23.198;2023-02-17T00:34:44;92848.19;;;-0.39;86.93
34506;BME280;20748;42.632;23.198;2023-02-17T00:37:18;92852.88;;;-0.36;87.49
34506;BME280;20748;42.632;23.198;2023-02-17T00:39:51;92841.25;;;-0.39;87.51
34506;BME280;20748;42.632;23.198;2023-02-17T00:42:23;92850.38;;;-0.43;86.82
34506;BME280;20748;42.632;23.198;2023-02-17T00:44:56;92846.16;;;-0.31;85.57
34506;BME280;20748;42.632;23.198;2023-02-17T00:47:28;92846.00;;;-0.36;85.45
34506;BME280;20748;42.632;23.198;2023-02-17T00:50:00;92843.41;;;-0.36;86.13
34506;BME280;20748;42.632;23.198;2023-02-17T00:52:34;92850.31;;;-0.36;86.44
34506;BME280;20748;42.632;23.198;2023-02-17T00:55:07;92848.19;;;-0.39;87.06
34506;BME280;20748;42.632;23.198;2023-02-17T00:57:40;92849.34;;;-0.35;86.67
34506;BME280;20748;42.632;23.198;2023-02-17T01:00:14;92853.63;;;-0.29;85.23
34506;BME280;20748;42.632;23.198;2023-02-17T01:02:46;92846.88;;;-0.23;84.80
34506;BME280;20748;42.632;23.198;2023-02-17T01:05:19;92846.59;;;-0.15;83.82
34506;BME280;20748;42.632;23.198;2023-02-17T01:07:52;92849.56;;;-0.11;84.60
34506;BME280;20748;42.632;23.198;2023-02-17T01:10:24;92854.25;;;-0.08;84.52
34506;BME280;20748;42.632;23.198;2023-02-17T01:12:57;92848.72;;;-0.05;83.79
34506;BME280;20748;42.632;23.198;2023-02-17T01:15:29;92843.72;;;0.00;82.44
34506;BME280;20748;42.632;23.198;2023-02-17T01:18:02;92837.81;;;-0.01;82.63
34506;BME280;20748;42.632;23.198;2023-02-17T01:20:36;92842.38;;;-0.03;83.19
34506;BME280;20748;42.632;23.198;2023-02-17T01:23:11;92833.69;;;-0.02;83.98
34506;BME280;20748;42.632;23.198;2023-02-17T01:25:45;92832.63;;;0.06;83.30
34506;BME280;20748;42.632;23.198;2023-02-17T01:28:20;92829.81;;;0.08;82.92
34506;BME280;20748;42.632;23.198;2023-02-17T01:30:52;92827.59;;;0.11;81.43
34506;BME280;20748;42.632;23.198;2023-02-17T01:33:25;92828.97;;;0.14;82.01
34506;BME280;20748;42.632;23.198;2023-02-17T01:36:00;92833.13;;;0.15;82.12
34506;BME280;20748;42.632;23.198;2023-02-17T01:38:34;92820.03;;;-0.02;82.81
34506;BME280;20748;42.632;23.198;2023-02-17T01:41:07;92839.88;;;0.09;83.90
34506;BME280;20748;42.632;23.198;2023-02-17T01:43:41;92844.81;;;0.11;82.62
34506;BME280;20748;42.632;23.198;2023-02-17T01:46:14;92842.03;;;0.12;82.08
34506;BME280;20748;42.632;23.198;2023-02-17T01:48:48;92838.47;;;0.13;81.94
34506;BME280;20748;42.632;23.198;2023-02-17T01:51:25;92834.03;;;0.21;81.63
34506;BME280;20748;42.632;23.198;2023-02-17T01:54:02;92840.09;;;0.26;80.89
34506;BME280;20748;42.632;23.198;2023-02-17T01:56:39;92833.75;;;0.29;80.71
34506;BME280;20748;42.632;23.198;2023-02-17T01:59:18;92838.63;;;0.37;79.76
34506;BME280;20748;42.632;23.198;2023-02-17T02:01:56;92836.56;;;0.46;79.05
34506;BME280;20748;42.632;23.198;2023-02-17T02:04:32;92844.16;;;0.53;78.25
34506;BME280;20748;42.632;23.198;2023-02-17T02:07:12;92831.91;;;0.55;77.98
34506;BME280;20748;42.632;23.198;2023-02-17T02:09:50;92841.47;;;0.66;78.25
34506;BME280;20748;42.632;23.198;2023-02-17T02:12:26;92844.47;;;0.63;78.18
34506;BME280;20748;42.632;23.198;2023-02-17T02:15:01;92837.19;;;0.60;78.38
34506;BME280;20748;42.632;23.198;2023-02-17T02:17:41;92836.75;;;0.63;78.43
34506;BME280;20748;42.632;23.198;2023-02-17T02:20:47;92846.25;;;0.63;79.35
34506;BME280;20748;42.632;23.198;2023-02-17T02:24:01;92836.41;;;0.60;79.13
34506;BME280;20748;42.632;23.198;2023-02-17T02:27:14;92835.25;;;0.56;79.59
34506;BME280;20748;42.632;23.198;2023-02-17T02:30:18;92836.97;;;0.43;81.18
34506;BME280;20748;42.632;23.198;2023-02-17T02:33:08;92833.91;;;0.34;80.86
34506;BME280;20748;42.632;23.198;2023-02-17T02:35:50;92833.91;;;0.34;80.95
34506;BME280;20748;42.632;23.198;2023-02-17T02:38:27;92837.47;;;0.33;81.18
34506;BME280;20748;42.632;23.198;2023-02-17T02:41:07;92840.03;;;0.33;81.66
34506;BME280;20748;42.632;23.198;2023-02-17T02:43:41;92840.59;;;0.35;81.10
34506;BME280;20748;42.632;23.198;2023-02-17T02:46:14;92839.69;;;0.30;81.29
34506;BME280;20748;42.632;23.198;2023-02-17T02:48:49;92840.47;;;0.30;82.06
34506;BME280;20748;42.632;23.198;2023-02-17T02:51:42;92841.53;;;0.22;82.83
34506;BME280;20748;42.632;23.198;2023-02-17T02:54:24;92845.53;;;0.18;83.06
34506;BME280;20748;42.632;23.198;2023-02-17T02:57:08;92845.72;;;0.17;83.67
34506;BME280;20748;42.632;23.198;2023-02-17T02:59:56;92838.09;;;0.10;83.53
34506;BME280;20748;42.632;23.198;2023-02-17T03:02:38;92844.44;;;0.07;84.11
34506;BME280;20748;42.632;23.198;2023-02-17T03:05:24;92846.19;;;-0.12;85.29
34506;BME280;20748;42.632;23.198;2023-02-17T03:08:03;92851.00;;;-0.22;85.67
34506;BME280;20748;42.632;23.198;2023-02-17T03:10:45;92846.88;;;-0.23;87.00
34506;BME280;20748;42.632;23.198;2023-02-17T03:13:18;92835.38;;;-0.39;87.47
34506;BME280;20748;42.632;23.198;2023-02-17T03:15:52;92842.59;;;-0.30;87.69
34506;BME280;20748;42.632;23.198;2023-02-17T03:18:24;92843.50;;;-0.24;87.18
34506;BME280;20748;42.632;23.198;2023-02-17T03:21:01;92849.44;;;-0.23;87.89
34506;BME280;20748;42.632;23.198;2023-02-17T03:23:35;92845.31;;;-0.24;88.20
34506;BME280;20748;42.632;23.198;2023-02-17T03:26:07;92846.72;;;-0.29;87.79
34506;BME280;20748;42.632;23.198;2023-02-17T03:28:40;92839.84;;;-0.35;87.79
34506;BME280;20748;42.632;23.198;2023-02-17T03:31:12;92842.41;;;-0.35;88.16
34506;BME280;20748;42.632;23.198;2023-02-17T03:33:44;92847.16;;;-0.32;86.91
34506;BME280;20748;42.632;23.198;2023-02-17T03:36:18;92847.72;;;-0.30;87.47
34506;BME280;20748;42.632;23.198;2023-02-17T03:38:50;92845.72;;;-0.28;86.51
34506;BME280;20748;42.632;23.198;2023-02-17T03:41:23;92843.78;;;-0.32;87.64
34506;BME280;20748;42.632;23.198;2023-02-17T03:43:55;92849.91;;;-0.33;87.58
34506;BME280;20748;42.632;23.198;2023-02-17T03:46:28;92848.75;;;-0.37;87.86
34506;BME280;20748;42.632;23.198;2023-02-17T03:49:00;92847.59;;;-0.42;88.48
34506;BME280;20748;42.632;23.198;2023-02-17T03:51:33;92845.25;;;-0.43;88.41
34506;BME280;20748;42.632;23.198;2023-02-17T03:54:06;92847.59;;;-0.42;88.25
34506;BME280;20748;42.632;23.198;2023-02-17T03:56:38;92846.38;;;-0.39;87.21
34506;BME280;20748;42.632;23.198;2023-02-17T03:59:10;92850.03;;;-0.47;87.63
34506;BME280;20748;42.632;23.198;2023-02-17T04:01:43;92834.47;;;-0.52;87.73
34506;BME280;20748;42.632;23.198;2023-02-17T04:04:15;92838.03;;;-0.53;88.15
34506;BME280;20748;42.632;23.198;2023-02-17T04:06:49;92828.81;;;-0.61;88.32
34506;BME280;20748;42.632;23.198;2023-02-17T04:09:21;92836.91;;;-0.64;89.03
34506;BME280;20748;42.632;23.198;2023-02-17T04:11:53;92827.44;;;-0.63;89.42
34506;BME280;20748;42.632;23.198;2023-02-17T04:14:26;92832.66;;;-0.77;90.56
34506;BME280;20748;42.632;23.198;2023-02-17T04:16:58;92839.97;;;-0.81;91.65
34506;BME280;20748;42.632;23.198;2023-02-17T04:19:31;92826.75;;;-0.77;91.81
34506;BME280;20748;42.632;23.198;2023-02-17T04:22:04;92824.72;;;-0.69;91.20
34506;BME280;20748;42.632;23.198;2023-02-17T04:24:39;92826.72;;;-0.71;91.83
34506;BME280;20748;42.632;23.198;2023-02-17T04:27:12;92829.06;;;-0.69;91.59
34506;BME280;20748;42.632;23.198;2023-02-17T04:29:44;92824.88;;;-0.63;91.70
34506;BME280;20748;42.632;23.198;2023-02-17T04:32:17;92823.31;;;-0.64;92.17
34506;BME280;20748;42.632;23.198;2023-02-17T04:34:49;92825.06;;;-0.58;91.21
34506;BME280;20748;42.632;23.198;2023-02-17T04:37:22;92821.72;;;-0.65;92.85
34506;BME280;20748;42.632;23.198;2023-02-17T04:39:55;92820.63;;;-0.76;92.96
34506;BME280;20748;42.632;23.198;2023-02-17T04:42:27;92824.34;;;-0.72;94.13
34506;BME280;20748;42.632;23.198;2023-02-17T04:44:59;92811.91;;;-0.69;93.99
34506;BME280;20748;42.632;23.198;2023-02-17T04:47:32;92814.28;;;-0.67;94.71
34506;BME280;20748;42.632;23.198;2023-02-17T04:50:07;92820.91;;;-0.85;96.25
34506;BME280;20748;42.632;23.198;2023-02-17T04:52:40;92821.25;;;-0.81;96.12
34506;BME280;20748;42.632;23.198;2023-02-17T04:55:13;92823.00;;;-0.75;94.59
34506;BME280;20748;42.632;23.198;2023-02-17T04:57:45;92835.44;;;-0.78;95.35
34506;BME280;20748;42.632;23.198;2023-02-17T05:00:18;92826.78;;;-0.84;96.74
34506;BME280;20748;42.632;23.198;2023-02-17T05:02:51;92817.66;;;-0.73;96.42
34506;BME280;20748;42.632;23.198;2023-02-17T05:05:23;92847.34;;;-0.91;95.85
34506;BME280;20748;42.632;23.198;2023-02-17T05:07:57;92837.84;;;-0.84;95.18
34506;BME280;20748;42.632;23.198;2023-02-17T05:10:29;92826.75;;;-0.77;94.52
34506;BME280;20748;42.632;23.198;2023-02-17T05:13:02;92829.28;;;-0.71;93.68
34506;BME280;20748;42.632;23.198;2023-02-17T05:15:34;92839.91;;;-0.67;93.52
34506;BME280;20748;42.632;23.198;2023-02-17T05:18:07;92837.75;;;-0.70;93.22
34506;BME280;20748;42.632;23.198;2023-02-17T05:20:39;92831.97;;;-0.65;93.53
34506;BME280;20748;42.632;23.198;2023-02-17T05:23:12;92838.28;;;-0.61;93.17
34506;BME280;20748;42.632;23.198;2023-02-17T05:25:45;92841.84;;;-0.62;93.21
34506;BME280;20748;42.632;23.198;2023-02-17T05:28:17;92862.66;;;-0.84;94.16
34506;BME280;20748;42.632;23.198;2023-02-17T05:30:50;92844.88;;;-0.72;93.93
34506;BME280;20748;42.632;23.198;2023-02-17T05:33:22;92858.97;;;-0.63;93.17
34506;BME280;20748;42.632;23.198;2023-02-17T05:35:55;92858.53;;;-0.85;94.25
34506;BME280;20748;42.632;23.198;2023-02-17T05:38:28;92857.13;;;-0.81;96.66
34506;BME280;20748;42.632;23.198;2023-02-17T05:41:01;92875.28;;;-0.83;95.02
34506;BME280;20748;42.632;23.198;2023-02-17T05:43:33;92874.91;;;-0.93;94.27
34506;BME280;20748;42.632;23.198;2023-02-17T05:46:06;92855.94;;;-0.78;94.29
34506;BME280;20748;42.632;23.198;2023-02-17T05:48:39;92878.13;;;-0.65;92.62
34506;BME280;20748;42.632;23.198;2023-02-17T05:51:11;92873.41;;;-0.69;92.72
34506;BME280;20748;42.632;23.198;2023-02-17T05:53:48;92876.53;;;-0.60;92.66
34506;BME280;20748;42.632;23.198;2023-02-17T05:56:20;92868.56;;;-0.51;92.71
34506;BME280;20748;42.632;23.198;2023-02-17T05:58:53;92882.03;;;-0.56;93.10
34506;BME280;20748;42.632;23.198;2023-02-17T06:01:26;92885.22;;;-0.61;94.06
34506;BME280;20748;42.632;23.198;2023-02-17T06:03:58;92883.13;;;-0.45;93.51
34506;BME280;20748;42.632;23.198;2023-02-17T06:06:31;92888.84;;;-0.43;92.63
34506;BME280;20748;42.632;23.198;2023-02-17T06:09:04;92888.38;;;-0.33;92.59
34506;BME280;20748;42.632;23.198;2023-02-17T06:11:36;92891.50;;;-0.31;93.18
34506;BME280;20748;42.632;23.198;2023-02-17T06:14:09;92891.03;;;-0.21;92.75
34506;BME280;20748;42.632;23.198;2023-02-17T06:16:42;92894.38;;;-0.14;92.80
34506;BME280;20748;42.632;23.198;2023-02-17T06:19:14;92885.81;;;-0.08;93.01
34506;BME280;20748;42.632;23.198;2023-02-17T06:21:47;92887.03;;;-0.10;92.80
34506;BME280;20748;42.632;23.198;2023-02-17T06:24:20;92896.75;;;-0.19;94.26
34506;BME280;20748;42.632;23.198;2023-02-17T06:26:52;92893.38;;;-0.13;93.55
34506;BME280;20748;42.632;23.198;2023-02-17T06:29:25;92896.66;;;-0.06;93.43
34506;BME280;20748;42.632;23.198;2023-02-17T06:31:58;92905.09;;;0.02;92.88
34506;BME280;20748;42.632;23.198;2023-02-17T06:34:31;92898.69;;;0.11;92.26
34506;BME280;20748;42.632;23.198;2023-02-17T06:37:03;92900.25;;;0.12;92.13
34506;BME280;20748;42.632;23.198;2023-02-17T06:39:36;92904.00;;;0.16;93.06
34506;BME280;20748;42.632;23.198;2023-02-17T06:42:09;92910.03;;;0.22;93.77
34506;BME280;20748;42.632;23.198;2023-02-17T06:44:41;92912.78;;;0.27;93.68
34506;BME280;20748;42.632;23.198;2023-02-17T06:47:14;92910.91;;;0.34;93.04
34506;BME280;20748;42.632;23.198;2023-02-17T06:49:46;92912.78;;;0.46;92.63
34506;BME280;20748;42.632;23.198;2023-02-17T06:52:18;92920.84;;;0.49;92.12
34506;BME280;20748;42.632;23.198;2023-02-17T06:54:52;92916.16;;;0.65;91.93
34506;BME280;20748;42.632;23.198;2023-02-17T06:57:24;92915.88;;;0.73;91.21
34506;BME280;20748;42.632;23.198;2023-02-17T06:59:56;92916.38;;;0.82;88.95
34506;BME280;20748;42.632;23.198;2023-02-17T07:02:29;92911.38;;;0.87;88.92
34506;BME280;20748;42.632;23.198;2023-02-17T07:05:01;92914.88;;;0.93;89.18
34506;BME280;20748;42.632;23.198;2023-02-17T07:07:34;92912.47;;;0.98;89.27
34506;BME280;20748;42.632;23.198;2023-02-17T07:10:08;92902.53;;;1.02;88.42
34506;BME280;20748;42.632;23.198;2023-02-17T07:12:40;92908.19;;;1.23;86.86
34506;BME280;20748;42.632;23.198;2023-02-17T07:15:13;92913.81;;;1.31;87.40
34506;BME280;20748;42.632;23.198;2023-02-17T07:17:45;92923.41;;;1.24;83.97
34506;BME280;20748;42.632;23.198;2023-02-17T07:20:18;92918.88;;;1.38;82.75
34506;BME280;20748;42.632;23.198;2023-02-17T07:22:50;92918.84;;;1.57;82.57
34506;BME280;20748;42.632;23.198;2023-02-17T07:25:24;92921.00;;;1.72;80.10
34506;BME280;20748;42.632;23.198;2023-02-17T07:27:56;92924.72;;;1.88;81.46
34506;BME280;20748;42.632;23.198;2023-02-17T07:30:30;92924.63;;;2.07;82.15
34506;BME280;20748;42.632;23.198;2023-02-17T07:33:03;92922.09;;;2.31;81.13
34506;BME280;20748;42.632;23.198;2023-02-17T07:35:39;92931.16;;;2.45;80.70
34506;BME280;20748;42.632;23.198;2023-02-17T07:38:12;92924.22;;;2.58;77.63
34506;BME280;20748;42.632;23.198;2023-02-17T07:40:46;92938.78;;;2.76;75.19
34506;BME280;20748;42.632;23.198;2023-02-17T07:43:18;92929.34;;;2.93;73.24
34506;BME280;20748;42.632;23.198;2023-02-17T07:45:53;92923.28;;;3.00;70.82
34506;BME280;20748;42.632;23.198;2023-02-17T07:48:25;92938.91;;;3.22;71.30
34506;BME280;20748;42.632;23.198;2023-02-17T07:51:03;92944.22;;;3.44;70.01
34506;BME280;20748;42.632;23.198;2023-02-17T07:53:36;92934.94;;;3.60;69.03
34506;BME280;20748;42.632;23.198;2023-02-17T07:56:11;92939.84;;;3.74;69.74
34506;BME280;20748;42.632;23.198;2023-02-17T07:58:44;92936.13;;;3.82;69.12
34506;BME280;20748;42.632;23.198;2023-02-17T08:01:19;92929.41;;;3.98;68.02
34506;BME280;20748;42.632;23.198;2023-02-17T08:03:52;92923.22;;;4.16;67.72
34506;BME280;20748;42.632;23.198;2023-02-17T08:06:25;92939.50;;;4.34;66.17
34506;BME280;20748;42.632;23.198;2023-02-17T08:08:58;92936.75;;;4.40;65.20
34506;BME280;20748;42.632;23.198;2023-02-17T08:11:49;92932.31;;;4.36;66.33
34506;BME280;20748;42.632;23.198;2023-02-17T08:14:40;92936.13;;;4.33;65.98
34506;BME280;20748;42.632;23.198;2023-02-17T08:17:12;92936.44;;;4.54;66.55
34506;BME280;20748;42.632;23.198;2023-02-17T08:19:44;92936.50;;;4.76;65.98
34506;BME280;20748;42.632;23.198;2023-02-17T08:22:20;92936.22;;;4.95;65.49
34506;BME280;20748;42.632;23.198;2023-02-17T08:24:53;92935.13;;;5.13;65.11
34506;BME280;20748;42.632;23.198;2023-02-17T08:27:26;92939.16;;;5.26;63.24
34506;BME280;20748;42.632;23.198;2023-02-17T08:29:58;92942.69;;;5.42;61.93
34506;BME280;20748;42.632;23.198;2023-02-17T08:32:31;92939.69;;;5.50;62.72
34506;BME280;20748;42.632;23.198;2023-02-17T08:35:04;92943.44;;;5.65;60.93
34506;BME280;20748;42.632;23.198;2023-02-17T08:37:37;92934.41;;;5.68;60.52
34506;BME280;20748;42.632;23.198;2023-02-17T08:40:10;92937.47;;;5.87;60.21
34506;BME280;20748;42.632;23.198;2023-02-17T08:42:43;92944.94;;;6.11;59.58
34506;BME280;20748;42.632;23.198;2023-02-17T08:45:16;92932.66;;;6.28;60.13
34506;BME280;20748;42.632;23.198;2023-02-17T08:47:49;92929.19;;;6.50;59.66
34506;BME280;20748;42.632;23.198;2023-02-17T08:50:21;92928.78;;;6.69;59.68
34506;BME280;20748;42.632;23.198;2023-02-17T08:52:54;92930.16;;;6.87;57.87
34506;BME280;20748;42.632;23.198;2023-02-17T08:55:27;92938.34;;;7.11;55.91
34506;BME280;20748;42.632;23.198;2023-02-17T08:58:05;92932.75;;;7.41;50.13
34506;BME280;20748;42.632;23.198;2023-02-17T09:00:37;92939.81;;;7.61;44.50
34506;BME280;20748;42.632;23.198;2023-02-17T09:03:10;92935.44;;;7.82;46.16
34506;BME280;20748;42.632;23.198;2023-02-17T09:05:42;92941.19;;;8.00;44.25
34506;BME280;20748;42.632;23.198;2023-02-17T09:08:15;92934.97;;;8.16;42.10
34506;BME280;20748;42.632;23.198;2023-02-17T09:10:48;92937.28;;;8.28;41.96
34506;BME280;20748;42.632;23.198;2023-02-17T09:13:22;92935.50;;;8.39;41.19
34506;BME280;20748;42.632;23.198;2023-02-17T09:15:55;92926.94;;;8.54;42.17
34506;BME280;20748;42.632;23.198;2023-02-17T09:18:27;92940.44;;;8.62;40.96
34506;BME280;20748;42.632;23.198;2023-02-17T09:21:05;92927.16;;;8.68;39.64
34506;BME280;20748;42.632;23.198;2023-02-17T09:23:38;92925.09;;;8.65;39.80
34506;BME280;20748;42.632;23.198;2023-02-17T09:26:12;92924.53;;;8.84;40.17
34506;BME280;20748;42.632;23.198;2023-02-17T09:28:46;92921.13;;;8.94;38.36
34506;BME280;20748;42.632;23.198;2023-02-17T09:31:22;92926.06;;;8.90;38.62
34506;BME280;20748;42.632;23.198;2023-02-17T09:33:57;92936.97;;;9.08;39.64
34506;BME280;20748;42.632;23.198;2023-02-17T09:36:31;92930.19;;;9.07;38.85
34506;BME280;20748;42.632;23.198;2023-02-17T09:39:03;92930.94;;;9.18;40.87
34506;BME280;20748;42.632;23.198;2023-02-17T09:41:39;92927.84;;;9.16;38.43
34506;BME280;20748;42.632;23.198;2023-02-17T09:44:19;92917.38;;;9.31;41.21
34506;BME280;20748;42.632;23.198;2023-02-17T09:46:58;92914.69;;;9.42;38.89
34506;BME280;20748;42.632;23.198;2023-02-17T09:49:37;92920.16;;;9.45;38.37
34506;BME280;20748;42.632;23.198;2023-02-17T09:52:13;92912.56;;;9.54;38.56
34506;BME280;20748;42.632;23.198;2023-02-17T09:54:57;92914.81;;;9.71;39.61
34506;BME280;20748;42.632;23.198;2023-02-17T09:57:34;92913.78;;;9.72;37.84
34506;BME280;20748;42.632;23.198;2023-02-17T10:00:11;92909.50;;;9.87;39.02
34506;BME280;20748;42.632;23.198;2023-02-17T10:02:50;92915.50;;;9.87;36.73
34506;BME280;20748;42.632;23.198;2023-02-17T10:05:32;92917.84;;;9.89;36.36
34506;BME280;20748;42.632;23.198;2023-02-17T10:08:09;92907.69;;;9.87;36.50
34506;BME280;20748;42.632;23.198;2023-02-17T10:10:48;92906.16;;;9.81;35.96
34506;BME280;20748;42.632;23.198;2023-02-17T10:13:24;92902.09;;;10.04;37.85
34506;BME280;20748;42.632;23.198;2023-02-17T10:16:05;92905.50;;;10.00;35.78
34506;BME280;20748;42.632;23.198;2023-02-17T10:18:43;92891.66;;;10.04;36.69
34506;BME280;20748;42.632;23.198;2023-02-17T10:21:21;92890.50;;;10.21;38.00
34506;BME280;20748;42.632;23.198;2023-02-17T10:23:57;92894.78;;;10.06;36.30
34506;BME280;20748;42.632;23.198;2023-02-17T10:26:44;92887.47;;;10.08;36.18
34506;BME280;20748;42.632;23.198;2023-02-17T10:29:29;92888.72;;;10.16;35.24
34506;BME280;20748;42.632;23.198;2023-02-17T10:32:14;92883.47;;;10.21;35.39
34506;BME280;20748;42.632;23.198;2023-02-17T10:35:03;92882.50;;;10.42;37.45
34506;BME280;20748;42.632;23.198;2023-02-17T10:37:45;92877.28;;;10.42;35.47
34506;BME280;20748;42.632;23.198;2023-02-17T10:40:20;92873.91;;;10.41;35.84
34506;BME280;20748;42.632;23.198;2023-02-17T10:42:55;92877.81;;;10.44;36.12
34506;BME280;20748;42.632;23.198;2023-02-17T10:45:31;92878.56;;;10.74;37.12
34506;BME280;20748;42.632;23.198;2023-02-17T10:48:07;92873.13;;;10.70;36.88
34506;BME280;20748;42.632;23.198;2023-02-17T10:50:43;92873.75;;;10.86;37.05
34506;BME280;20748;42.632;23.198;2023-02-17T10:53:18;92871.66;;;10.88;37.18
34506;BME280;20748;42.632;23.198;2023-02-17T10:55:59;92862.47;;;11.15;38.32
34506;BME280;20748;42.632;23.198;2023-02-17T10:58:36;92861.66;;;11.39;37.09
34506;BME280;20748;42.632;23.198;2023-02-17T11:01:12;92851.91;;;11.26;35.52
34506;BME280;20748;42.632;23.198;2023-02-17T11:03:46;92853.03;;;11.39;35.26
34506;BME280;20748;42.632;23.198;2023-02-17T11:06:21;92859.47;;;11.47;34.77
34506;BME280;20748;42.632;23.198;2023-02-17T11:08:57;92864.00;;;11.79;35.67
34506;BME280;20748;42.632;23.198;2023-02-17T11:11:34;92855.16;;;11.94;35.04
34506;BME280;20748;42.632;23.198;2023-02-17T11:14:12;92852.34;;;11.91;35.09
34506;BME280;20748;42.632;23.198;2023-02-17T11:16:53;92857.00;;;11.75;33.73
34506;BME280;20748;42.632;23.198;2023-02-17T11:19:28;92851.91;;;11.84;34.06
34506;BME280;20748;42.632;23.198;2023-02-17T11:22:04;92850.97;;;11.93;34.41
34506;BME280;20748;42.632;23.198;2023-02-17T11:24:37;92843.91;;;11.75;34.01
34506;BME280;20748;42.632;23.198;2023-02-17T11:27:10;92850.41;;;11.58;34.31
34506;BME280;20748;42.632;23.198;2023-02-17T11:29:43;92850.34;;;11.63;34.62
34506;BME280;20748;42.632;23.198;2023-02-17T11:32:15;92851.00;;;11.74;34.02
34506;BME280;20748;42.632;23.198;2023-02-17T11:34:56;92842.72;;;11.86;34.30
34506;BME280;20748;42.632;23.198;2023-02-17T11:37:29;92842.06;;;12.14;34.91
34506;BME280;20748;42.632;23.198;2023-02-17T11:40:21;92831.81;;;12.31;34.14
34506;BME280;20748;42.632;23.198;2023-02-17T11:42:58;92825.25;;;12.48;33.91
34506;BME280;20748;42.632;23.198;2023-02-17T11:45:38;92827.81;;;12.67;34.00
34506;BME280;20748;42.632;23.198;2023-02-17T11:48:32;92830.16;;;12.83;35.25
34506;BME280;20748;42.632;23.198;2023-02-17T11:51:13;92828.09;;;12.80;32.84
34506;BME280;20748;42.632;23.198;2023-02-17T11:53:58;92830.53;;;13.04;33.42
34506;BME280;20748;42.632;23.198;2023-02-17T11:56:36;92816.56;;;13.09;33.33
34506;BME280;20748;42.632;23.198;2023-02-17T11:59:22;92812.56;;;12.69;32.29
34506;BME280;20748;42.632;23.198;2023-02-17T12:02:24;92808.59;;;12.86;33.69
34506;BME280;20748;42.632;23.198;2023-02-17T12:05:17;92812.00;;;13.00;33.86
34506;BME280;20748;42.632;23.198;2023-02-17T12:08:03;92812.91;;;13.33;33.30
34506;BME280;20748;42.632;23.198;2023-02-17T12:10:46;92797.38;;;13.36;33.45
34506;BME280;20748;42.632;23.198;2023-02-17T12:13:30;92802.22;;;13.57;32.55
34506;BME280;20748;42.632;23.198;2023-02-17T12:16:21;92800.00;;;13.73;33.06
34506;BME280;20748;42.632;23.198;2023-02-17T12:19:01;92792.50;;;14.03;33.76
34506;BME280;20748;42.632;23.198;2023-02-17T12:21:50;92789.03;;;13.94;32.84
34506;BME280;20748;42.632;23.198;2023-02-17T12:24:36;92787.09;;;14.31;32.43
34506;BME280;20748;42.632;23.198;2023-02-17T12:27:23;92778.31;;;14.36;33.01
34506;BME280;20748;42.632;23.198;2023-02-17T12:30:11;92776.41;;;14.68;31.40
34506;BME280;20748;42.632;23.198;2023-02-17T12:33:05;92768.56;;;14.28;33.75
34506;BME280;20748;42.632;23.198;2023-02-17T12:35:47;92770.13;;;14.69;31.86
34506;BME280;20748;42.632;23.198;2023-02-17T12:38:25;92762.41;;;14.73;31.21
34506;BME280;20748;42.632;23.198;2023-02-17T12:41:04;92755.16;;;14.79;31.61
34506;BME280;20748;42.632;23.198;2023-02-17T12:43:42;92745.69;;;14.28;31.43
34506;BME280;20748;42.632;23.198;2023-02-17T12:46:20;92751.41;;;14.71;32.17
34506;BME280;20748;42.632;23.198;2023-02-17T12:48:57;92752.72;;;14.50;30.80
34506;BME280;20748;42.632;23.198;2023-02-17T12:51:34;92744.69;;;14.96;32.16
34506;BME280;20748;42.632;23.198;2023-02-17T12:54:14;92751.31;;;14.85;31.52
34506;BME280;20748;42.632;23.198;2023-02-17T12:57:12;92743.34;;;14.58;30.14
34506;BME280;20748;42.632;23.198;2023-02-17T12:59:45;92746.53;;;14.87;30.57
34506;BME280;20748;42.632;23.198;2023-02-17T13:02:20;92739.13;;;14.98;30.11
34506;BME280;20748;42.632;23.198;2023-02-17T13:04:54;92734.34;;;15.00;30.61
34506;BME280;20748;42.632;23.198;2023-02-17T13:07:38;92740.56;;;15.39;30.80
34506;BME280;20748;42.632;23.198;2023-02-17T13:10:27;92737.91;;;14.95;31.34
34506;BME280;20748;42.632;23.198;2023-02-17T13:13:04;92738.72;;;15.31;30.52
34506;BME280;20748;42.632;23.198;2023-02-17T13:15:40;92742.75;;;15.28;30.71
34506;BME280;20748;42.632;23.198;2023-02-17T13:18:26;92737.47;;;15.37;29.39
34506;BME280;20748;42.632;23.198;2023-02-17T13:21:00;92732.69;;;15.39;30.58
34506;BME280;20748;42.632;23.198;2023-02-17T13:23:35;92736.06;;;14.96;30.19
34506;BME280;20748;42.632;23.198;2023-02-17T13:26:25;92739.09;;;14.80;30.35
34506;BME280;20748;42.632;23.198;2023-02-17T13:29:32;92735.13;;;15.09;31.31
34506;BME280;20748;42.632;23.198;2023-02-17T13:32:06;92745.22;;;15.25;30.84
34506;BME280;20748;42.632;23.198;2023-02-17T13:34:43;92740.69;;;15.16;29.59
34506;BME280;20748;42.632;23.198;2023-02-17T13:37:23;92733.91;;;15.24;30.78
34506;BME280;20748;42.632;23.198;2023-02-17T13:39:58;92738.84;;;15.17;30.01
34506;BME280;20748;42.632;23.198;2023-02-17T13:42:35;92737.16;;;15.30;29.15